createdAt,value
2023-02-11T00:01:37.279Z,18.47
2023-02-11T00:04:08.267Z,19.77
2023-02-11T00:06:37.824Z,20.40
2023-02-11T00:09:07.017Z,24.40
2023-02-11T00:11:35.639Z,22.50
2023-02-11T00:14:07.842Z,16.73
2023-02-11T00:16:36.448Z,20.47
2023-02-11T00:19:07.484Z,20.23
2023-02-11T00:21:36.345Z,21.00
2023-02-11T00:24:05.341Z,17.67
2023-02-11T00:26:36.628Z,20.80
2023-02-11T00:29:06.927Z,19.63
2023-02-11T00:31:35.840Z,20.13
2023-02-11T00:34:04.594Z,19.33
2023-02-11T00:36:34.910Z,19.10
2023-02-11T00:39:03.390Z,19.43
2023-02-11T00:41:32.584Z,19.93
2023-02-11T00:44:01.257Z,16.87
2023-02-11T00:46:30.014Z,24.37
2023-02-11T00:48:58.668Z,18.17
2023-02-11T00:51:28.694Z,19.23
2023-02-11T00:53:58.774Z,21.23
2023-02-11T00:56:27.661Z,17.97
2023-02-11T00:58:56.145Z,25.57
2023-02-11T01:01:25.256Z,22.37
2023-02-11T01:03:53.672Z,21.50
2023-02-11T01:06:22.341Z,18.00
2023-02-11T01:08:50.864Z,17.43
2023-02-11T01:11:22.132Z,20.90
2023-02-11T01:13:52.181Z,19.00
2023-02-11T01:16:22.357Z,21.20
2023-02-11T01:18:51.061Z,22.73
2023-02-11T01:21:19.544Z,21.70
2023-02-11T01:23:48.480Z,21.03
2023-02-11T01:26:17.112Z,20.73
2023-02-11T01:28:47.023Z,20.47
2023-02-11T01:31:16.099Z,19.73
2023-02-11T01:33:44.823Z,20.23
2023-02-11T01:36:13.925Z,23.00
2023-02-11T01:38:44.507Z,22.90
2023-02-11T01:41:15.778Z,21.40
2023-02-11T01:43:49.523Z,22.43
2023-02-11T01:46:35.446Z,24.50
2023-02-11T01:49:10.502Z,46.27
2023-02-11T01:51:44.845Z,25.40
2023-02-11T01:54:35.767Z,22.03
2023-02-11T01:57:25.147Z,23.43
2023-02-11T02:00:06.881Z,22.83
2023-02-11T02:02:47.779Z,24.30
2023-02-11T02:05:32.539Z,22.90
2023-02-11T02:08:10.961Z,21.73
2023-02-11T02:10:44.570Z,22.17
2023-02-11T02:13:14.274Z,23.03
2023-02-11T02:15:51.947Z,23.37
2023-02-11T02:18:43.364Z,20.97
2023-02-11T02:21:53.743Z,27.67
2023-02-11T02:24:56.433Z,18.80
2023-02-11T02:27:43.350Z,19.63
2023-02-11T02:31:16.861Z,20.07
2023-02-11T02:33:57.029Z,21.80
2023-02-11T02:36:35.522Z,18.97
2023-02-11T02:39:10.346Z,21.57
2023-02-11T02:41:40.664Z,22.63
2023-02-11T02:44:10.137Z,23.50
2023-02-11T02:46:38.927Z,21.00
2023-02-11T02:49:15.308Z,23.07
2023-02-11T02:52:32.961Z,22.03
2023-02-11T02:55:43.840Z,20.57
2023-02-11T02:59:11.798Z,23.43
2023-02-11T03:01:51.498Z,19.60
2023-02-11T03:04:30.405Z,22.60
2023-02-11T03:07:08.946Z,21.00
2023-02-11T03:09:45.167Z,19.83
2023-02-11T03:12:15.297Z,21.60
2023-02-11T03:14:44.616Z,21.63
2023-02-11T03:17:15.535Z,20.17
2023-02-11T03:19:48.404Z,30.57
2023-02-11T03:22:23.247Z,23.47
2023-02-11T03:24:52.064Z,30.13
2023-02-11T03:27:28.017Z,24.50
2023-02-11T03:30:06.827Z,22.37
2023-02-11T03:32:41.314Z,22.70
2023-02-11T03:35:17.801Z,21.40
2023-02-11T03:37:53.410Z,21.53
2023-02-11T03:40:25.941Z,23.47
2023-02-11T03:43:00.828Z,23.60
2023-02-11T03:45:29.880Z,20.60
2023-02-11T03:48:04.184Z,22.20
2023-02-11T03:50:37.422Z,23.87
2023-02-11T03:53:07.088Z,22.10
2023-02-11T03:55:41.161Z,22.77
2023-02-11T03:58:10.529Z,22.70
2023-02-11T04:00:42.590Z,28.73
2023-02-11T04:03:12.338Z,24.10
2023-02-11T04:05:42.390Z,19.93
2023-02-11T04:08:10.974Z,24.03
2023-02-11T04:10:39.430Z,20.77
2023-02-11T04:13:07.868Z,26.77
2023-02-11T04:15:36.377Z,23.27
2023-02-11T04:18:05.298Z,23.40
2023-02-11T04:20:33.737Z,23.53
2023-02-11T04:23:03.606Z,24.50
2023-02-11T04:25:32.205Z,24.67
2023-02-11T04:28:00.694Z,21.70
2023-02-11T04:30:29.318Z,26.83
2023-02-11T04:32:59.020Z,22.27
2023-02-11T04:35:27.586Z,23.47
2023-02-11T04:37:55.998Z,23.60
2023-02-11T04:40:25.865Z,23.67
2023-02-11T04:42:54.414Z,26.23
2023-02-11T04:45:22.990Z,24.67
2023-02-11T04:47:51.478Z,23.20
2023-02-11T04:50:20.157Z,25.63
2023-02-11T04:52:48.584Z,24.30
2023-02-11T04:55:18.111Z,23.77
2023-02-11T04:57:48.019Z,26.70
2023-02-11T05:00:18.032Z,28.30
2023-02-11T05:02:46.557Z,25.50
2023-02-11T05:05:15.025Z,21.87
2023-02-11T05:07:43.451Z,26.57
2023-02-11T05:10:12.059Z,23.07
2023-02-11T05:12:40.525Z,24.60
2023-02-11T05:15:11.095Z,22.80
2023-02-11T05:17:39.493Z,28.17
2023-02-11T05:20:09.372Z,22.73
2023-02-11T05:22:37.773Z,21.77
2023-02-11T05:25:07.361Z,21.77
2023-02-11T05:27:35.823Z,24.20
2023-02-11T05:30:04.322Z,26.23
2023-02-11T05:32:34.158Z,23.55
2023-02-11T05:35:02.711Z,23.63
2023-02-11T05:37:31.182Z,23.00
2023-02-11T05:39:59.682Z,26.57
2023-02-11T05:42:28.233Z,24.50
2023-02-11T05:44:56.650Z,23.30
2023-02-11T05:47:25.102Z,20.87
2023-02-11T05:49:55.306Z,20.77
2023-02-11T05:52:24.531Z,23.63
2023-02-11T05:54:53.043Z,19.57
2023-02-11T05:57:21.638Z,21.70
2023-02-11T05:59:50.055Z,21.07
2023-02-11T06:02:18.494Z,19.77
2023-02-11T06:04:47.193Z,21.53
2023-02-11T06:07:17.515Z,39.00
2023-02-11T06:09:46.228Z,20.27
2023-02-11T06:12:14.831Z,22.13
2023-02-11T06:14:43.508Z,23.30
2023-02-11T06:17:13.973Z,20.93
2023-02-11T06:19:43.768Z,21.50
2023-02-11T06:22:12.305Z,22.03
2023-02-11T06:25:00.455Z,24.43
2023-02-11T06:27:30.114Z,24.80
2023-02-11T06:29:58.603Z,35.17
2023-02-11T06:32:43.981Z,25.90
2023-02-11T06:35:14.585Z,24.83
2023-02-11T06:37:43.932Z,20.27
2023-02-11T06:40:14.535Z,22.07
2023-02-11T06:42:43.047Z,19.73
2023-02-11T06:45:13.353Z,21.83
2023-02-11T06:47:42.996Z,21.83
2023-02-11T06:50:15.666Z,23.40
2023-02-11T06:52:44.074Z,22.40
2023-02-11T06:55:13.962Z,16.53
2023-02-11T06:57:42.574Z,26.93
2023-02-11T07:00:13.019Z,22.53
2023-02-11T07:02:41.480Z,21.45
2023-02-11T07:05:11.102Z,24.57
2023-02-11T07:07:39.675Z,22.58
2023-02-11T07:10:09.454Z,24.65
2023-02-11T07:12:39.325Z,24.50
2023-02-11T07:15:09.056Z,21.52
2023-02-11T07:17:37.802Z,19.33
2023-02-11T07:20:07.517Z,20.67
2023-02-11T07:22:35.963Z,22.35
2023-02-11T07:25:04.636Z,22.10
2023-02-11T07:27:33.196Z,19.92
2023-02-11T07:30:04.929Z,24.02
2023-02-11T07:32:35.341Z,23.20
2023-02-11T07:35:04.051Z,24.92
2023-02-11T07:37:34.262Z,22.70
2023-02-11T07:40:02.800Z,18.75
2023-02-11T07:42:31.231Z,18.95
2023-02-11T07:44:59.628Z,20.83
2023-02-11T07:47:29.426Z,21.80
2023-02-11T07:49:57.925Z,21.60
2023-02-11T07:52:26.322Z,23.38
2023-02-11T07:54:54.730Z,19.48
2023-02-11T07:57:23.113Z,19.75
2023-02-11T07:59:51.548Z,28.65
2023-02-11T08:02:20.047Z,25.02
2023-02-11T08:04:50.825Z,21.92
2023-02-11T08:07:20.250Z,23.75
2023-02-11T08:09:48.779Z,20.33
2023-02-11T08:12:17.199Z,20.95
2023-02-11T08:14:45.599Z,28.63
2023-02-11T08:17:14.014Z,18.73
2023-02-11T08:19:42.437Z,22.77
2023-02-11T08:22:12.598Z,23.55
2023-02-11T08:24:41.007Z,18.13
2023-02-11T08:27:09.404Z,18.55
2023-02-11T08:29:37.816Z,21.98
2023-02-11T08:32:06.328Z,19.92
2023-02-11T08:34:34.761Z,21.10
2023-02-11T08:37:03.159Z,19.23
2023-02-11T08:39:32.909Z,24.38
2023-02-11T08:42:01.265Z,20.48
2023-02-11T08:44:30.052Z,17.00
2023-02-11T08:46:58.464Z,18.13
2023-02-11T08:49:26.891Z,19.92
2023-02-11T08:51:56.278Z,17.08
2023-02-11T08:54:24.697Z,19.10
2023-02-11T08:56:54.629Z,21.00
2023-02-11T08:59:23.356Z,16.42
2023-02-11T09:01:52.085Z,22.50
2023-02-11T09:04:21.142Z,19.00
2023-02-11T09:06:49.564Z,22.00
2023-02-11T09:09:18.743Z,17.55
2023-02-11T09:11:48.213Z,19.60
2023-02-11T09:14:22.990Z,18.10
2023-02-11T09:16:53.248Z,20.95
2023-02-11T09:19:23.093Z,23.63
2023-02-11T09:21:51.686Z,20.45
2023-02-11T09:24:20.247Z,24.00
2023-02-11T09:26:49.599Z,18.92
2023-02-11T09:29:19.390Z,19.17
2023-02-11T09:31:47.997Z,21.58
2023-02-11T09:34:16.579Z,22.30
2023-02-11T09:36:45.038Z,20.42
2023-02-11T09:39:17.046Z,18.45
2023-02-11T09:42:38.075Z,19.38
2023-02-11T09:45:18.526Z,18.42
2023-02-11T09:47:59.827Z,17.30
2023-02-11T09:50:33.893Z,19.75
2023-02-11T09:53:05.851Z,16.42
2023-02-11T09:55:39.493Z,16.17
2023-02-11T09:58:15.048Z,19.77
2023-02-11T10:00:52.679Z,18.40
2023-02-11T10:03:50.959Z,16.25
2023-02-11T10:06:43.302Z,20.50
2023-02-11T10:09:48.852Z,15.07
2023-02-11T10:12:35.095Z,16.58
2023-02-11T10:15:19.163Z,15.10
2023-02-11T10:18:02.847Z,16.17
2023-02-11T10:20:37.807Z,20.95
2023-02-11T10:23:16.760Z,20.77
2023-02-11T10:25:47.968Z,15.20
2023-02-11T10:28:19.032Z,17.88
2023-02-11T10:30:57.505Z,17.63
2023-02-11T10:33:32.695Z,19.85
2023-02-11T10:36:01.546Z,15.93
2023-02-11T10:38:30.137Z,17.85
2023-02-11T10:40:58.535Z,18.63
2023-02-11T10:43:31.950Z,19.08
2023-02-11T10:46:03.643Z,16.65
2023-02-11T10:48:44.177Z,15.25
2023-02-11T10:51:22.486Z,20.27
2023-02-11T10:54:13.898Z,18.15
2023-02-11T10:56:50.044Z,16.50
2023-02-11T10:59:28.431Z,15.07
2023-02-11T11:02:01.334Z,15.63
2023-02-11T11:04:46.079Z,18.10
2023-02-11T11:07:20.584Z,15.55
2023-02-11T11:09:56.765Z,14.60
2023-02-11T11:12:35.186Z,18.38
2023-02-11T11:15:18.824Z,15.93
2023-02-11T11:17:47.666Z,17.20
2023-02-11T11:20:32.379Z,15.40
2023-02-11T11:23:17.342Z,16.42
2023-02-11T11:25:59.225Z,15.02
2023-02-11T11:28:31.121Z,14.95
2023-02-11T11:31:01.886Z,15.60
2023-02-11T11:33:33.400Z,13.55
2023-02-11T11:36:09.017Z,17.30
2023-02-11T11:38:44.668Z,16.90
2023-02-11T11:41:25.935Z,16.50
2023-02-11T11:44:04.280Z,12.43
2023-02-11T11:46:36.514Z,18.27
2023-02-11T11:49:27.734Z,15.07
2023-02-11T11:52:11.318Z,11.95
2023-02-11T11:54:42.982Z,13.57
2023-02-11T11:57:17.915Z,11.80
2023-02-11T11:59:47.151Z,17.90
2023-02-11T12:03:00.912Z,10.07
2023-02-11T12:05:39.265Z,12.20
2023-02-11T12:08:24.882Z,13.07
2023-02-11T12:11:10.592Z,14.25
2023-02-11T12:13:50.288Z,11.70
2023-02-11T12:16:32.153Z,12.57
2023-02-11T12:19:48.002Z,11.65
2023-02-11T12:22:31.992Z,14.93
2023-02-11T12:25:23.606Z,11.52
2023-02-11T12:28:05.131Z,9.30
2023-02-11T12:31:07.842Z,10.38
2023-02-11T12:34:05.707Z,14.45
2023-02-11T12:37:02.941Z,14.45
2023-02-11T12:39:44.515Z,16.08
2023-02-11T12:43:03.355Z,12.45
2023-02-11T12:46:25.860Z,16.40
2023-02-11T12:49:33.176Z,15.32
2023-02-11T12:52:36.928Z,16.85
2023-02-11T12:55:17.394Z,14.93
2023-02-11T12:57:50.395Z,23.70
2023-02-11T13:00:24.822Z,15.85
2023-02-11T13:03:05.275Z,13.63
2023-02-11T13:05:42.551Z,14.18
2023-02-11T13:08:16.766Z,13.77
2023-02-11T13:10:52.366Z,18.65
2023-02-11T13:13:26.888Z,14.80
2023-02-11T13:16:00.302Z,15.93
2023-02-11T13:18:51.058Z,16.88
2023-02-11T13:21:46.651Z,15.57
2023-02-11T13:24:28.136Z,15.25
2023-02-11T13:27:16.415Z,18.80
2023-02-11T13:30:31.840Z,17.55
2023-02-11T13:33:21.783Z,16.50
2023-02-11T13:36:17.005Z,16.80
2023-02-11T13:39:03.063Z,17.13
2023-02-11T13:41:40.653Z,18.30
2023-02-11T13:44:26.017Z,20.10
2023-02-11T13:47:04.748Z,20.63
2023-02-11T13:49:40.660Z,19.77
2023-02-11T13:52:26.563Z,17.33
2023-02-11T13:54:58.201Z,15.98
2023-02-11T13:57:40.859Z,16.50
2023-02-11T14:00:52.295Z,13.80
2023-02-11T14:03:48.611Z,18.80
2023-02-11T14:07:02.522Z,13.50
2023-02-11T14:09:57.715Z,16.00
2023-02-11T14:12:37.352Z,15.52
2023-02-11T14:15:28.389Z,19.85
2023-02-11T14:17:57.218Z,17.17
2023-02-11T14:20:51.351Z,15.68
2023-02-11T14:23:28.489Z,17.45
2023-02-11T14:26:40.129Z,18.70
2023-02-11T14:29:19.977Z,15.20
2023-02-11T14:32:01.044Z,12.13
2023-02-11T14:34:54.172Z,15.77
2023-02-11T14:37:40.344Z,14.35
2023-02-11T14:40:26.879Z,14.43
2023-02-11T14:43:02.801Z,12.73
2023-02-11T14:45:32.626Z,13.13
2023-02-11T14:48:08.792Z,19.50
2023-02-11T14:50:46.580Z,16.67
2023-02-11T14:53:24.368Z,14.15
2023-02-11T14:55:55.993Z,16.85
2023-02-11T14:58:28.246Z,12.25
2023-02-11T15:01:00.993Z,14.32
2023-02-11T15:03:35.245Z,12.07
2023-02-11T15:06:09.659Z,10.85
2023-02-11T15:08:45.878Z,14.30
2023-02-11T15:11:19.565Z,12.23
2023-02-11T15:13:55.557Z,12.75
2023-02-11T15:16:29.087Z,13.45
2023-02-11T15:19:04.086Z,10.20
2023-02-11T15:21:38.257Z,10.60
2023-02-11T15:24:25.765Z,12.73
2023-02-11T15:27:04.290Z,15.40
2023-02-11T15:29:39.918Z,10.27
2023-02-11T15:32:17.131Z,13.68
2023-02-11T15:34:48.671Z,10.20
2023-02-11T15:37:23.670Z,11.32
2023-02-11T15:39:57.213Z,11.75
2023-02-11T15:42:40.988Z,10.30
2023-02-11T15:45:29.324Z,9.45
2023-02-11T15:48:09.618Z,10.90
2023-02-11T15:50:41.373Z,10.50
2023-02-11T15:53:28.251Z,10.70
2023-02-11T15:56:06.619Z,18.67
2023-02-11T15:58:44.650Z,11.55
2023-02-11T16:01:15.421Z,11.40
2023-02-11T16:03:51.594Z,12.00
2023-02-11T16:06:24.867Z,12.70
2023-02-11T16:09:04.535Z,10.13
2023-02-11T16:11:37.524Z,11.15
2023-02-11T16:14:25.205Z,11.48
2023-02-11T16:16:57.943Z,10.27
2023-02-11T16:19:30.983Z,9.80
2023-02-11T16:22:09.022Z,10.45
2023-02-11T16:24:44.534Z,11.40
2023-02-11T16:27:26.221Z,13.50
2023-02-11T16:29:56.398Z,11.75
2023-02-11T16:32:29.674Z,10.57
2023-02-11T16:35:02.549Z,13.57
2023-02-11T16:37:32.838Z,16.30
2023-02-11T16:40:02.511Z,12.27
2023-02-11T16:42:33.728Z,12.75
2023-02-11T16:45:03.844Z,11.13
2023-02-11T16:47:33.992Z,11.93
2023-02-11T16:50:10.118Z,15.25
2023-02-11T16:52:41.369Z,12.38
2023-02-11T16:55:12.141Z,17.30
2023-02-11T16:57:43.903Z,13.93
2023-02-11T17:00:17.323Z,12.88
2023-02-11T17:02:48.045Z,13.05
2023-02-11T17:05:23.637Z,18.33
2023-02-11T17:07:53.210Z,14.32
2023-02-11T17:10:25.164Z,12.85
2023-02-11T17:12:56.102Z,14.77
2023-02-11T17:15:26.585Z,13.70
2023-02-11T17:17:59.481Z,12.77
2023-02-11T17:20:34.747Z,12.35
2023-02-11T17:23:04.924Z,14.68
2023-02-11T17:25:34.691Z,15.75
2023-02-11T17:28:06.805Z,14.93
2023-02-11T17:30:36.639Z,12.23
2023-02-11T17:33:07.190Z,13.10
2023-02-11T17:35:40.971Z,15.38
2023-02-11T17:38:11.275Z,12.73
2023-02-11T17:40:41.442Z,13.80
2023-02-11T17:43:16.151Z,15.45
2023-02-11T17:45:47.304Z,17.60
2023-02-11T17:48:19.244Z,16.27
2023-02-11T17:50:49.648Z,14.95
2023-02-11T17:53:19.774Z,11.07
2023-02-11T17:55:50.336Z,14.82
2023-02-11T17:58:22.637Z,17.35
2023-02-11T18:00:52.996Z,21.33
2023-02-11T18:03:23.136Z,14.43
2023-02-11T18:05:53.612Z,12.63
2023-02-11T18:08:29.801Z,11.43
2023-02-11T18:11:02.622Z,16.20
2023-02-11T18:13:34.904Z,17.20
2023-02-11T18:16:06.707Z,14.45
2023-02-11T18:18:36.915Z,13.38
2023-02-11T18:21:09.584Z,11.32
2023-02-11T18:23:39.762Z,12.93
2023-02-11T18:26:11.052Z,18.88
2023-02-11T18:28:45.842Z,13.93
2023-02-11T18:31:18.578Z,13.95
2023-02-11T18:33:50.088Z,12.05
2023-02-11T18:36:21.248Z,13.98
2023-02-11T18:38:53.047Z,14.70
2023-02-11T18:41:23.481Z,18.45
2023-02-11T18:43:54.738Z,14.60
2023-02-11T18:46:24.744Z,17.02
2023-02-11T18:48:56.056Z,13.15
2023-02-11T18:51:28.934Z,14.93
2023-02-11T18:54:01.854Z,15.65
2023-02-11T18:56:32.101Z,13.05
2023-02-11T18:59:06.031Z,14.40
2023-02-11T19:01:36.359Z,12.95
2023-02-11T19:04:08.220Z,16.88
2023-02-11T19:06:40.032Z,16.80
2023-02-11T19:09:13.864Z,15.70
2023-02-11T19:11:50.807Z,12.57
2023-02-11T19:14:26.987Z,15.95
2023-02-11T19:16:59.818Z,16.23
2023-02-11T19:19:32.396Z,13.77
2023-02-11T19:22:03.752Z,16.98
2023-02-11T19:24:34.603Z,14.32
2023-02-11T19:27:08.283Z,13.88
2023-02-11T19:29:43.443Z,12.70
2023-02-11T19:32:14.241Z,14.48
2023-02-11T19:34:48.408Z,14.30
2023-02-11T19:37:18.702Z,14.90
2023-02-11T19:39:51.539Z,17.48
2023-02-11T19:42:21.922Z,15.65
2023-02-11T19:45:10.099Z,14.10
2023-02-11T19:47:41.744Z,16.08
2023-02-11T19:50:12.894Z,17.42
2023-02-11T19:52:43.563Z,18.50
2023-02-11T19:55:14.179Z,15.68
2023-02-11T19:57:44.991Z,15.73
2023-02-11T20:00:21.384Z,16.95
2023-02-11T20:02:50.998Z,16.23
2023-02-11T20:05:24.082Z,16.63
2023-02-11T20:07:54.572Z,15.30
2023-02-11T20:10:25.823Z,14.45
2023-02-11T20:12:57.593Z,16.60
2023-02-11T20:15:30.424Z,15.85
2023-02-11T20:18:01.111Z,17.58
2023-02-11T20:20:31.705Z,16.42
2023-02-11T20:23:02.338Z,14.82
2023-02-11T20:25:31.337Z,14.10
2023-02-11T20:28:01.894Z,14.27
2023-02-11T20:30:34.143Z,14.85
2023-02-11T20:33:05.071Z,15.15
2023-02-11T20:35:35.174Z,19.92
2023-02-11T20:38:05.756Z,14.75
2023-02-11T20:40:36.297Z,16.30
2023-02-11T20:43:06.829Z,14.95
2023-02-11T20:45:41.498Z,13.65
2023-02-11T20:48:13.424Z,14.80
2023-02-11T20:50:46.592Z,16.55
2023-02-11T20:53:20.305Z,16.05
2023-02-11T20:55:51.212Z,15.45
2023-02-11T20:58:20.949Z,14.20
2023-02-11T21:00:52.931Z,18.77
2023-02-11T21:03:23.461Z,18.70
2023-02-11T21:05:54.799Z,16.05
2023-02-11T21:08:24.715Z,15.50
2023-02-11T21:10:54.296Z,15.98
2023-02-11T21:13:27.958Z,13.93
2023-02-11T21:15:59.363Z,17.30
2023-02-11T21:18:33.461Z,17.13
2023-02-11T21:21:06.070Z,18.27
2023-02-11T21:23:40.298Z,18.23
2023-02-11T21:26:10.921Z,18.00
2023-02-11T21:28:42.873Z,14.25
2023-02-11T21:31:23.693Z,13.85
2023-02-11T21:33:55.560Z,16.90
2023-02-11T21:36:25.887Z,17.48
2023-02-11T21:38:55.214Z,16.65
2023-02-11T21:41:27.422Z,16.58
2023-02-11T21:43:57.565Z,17.90
2023-02-11T21:46:29.333Z,15.45
2023-02-11T21:49:00.571Z,16.63
2023-02-11T21:51:30.710Z,19.20
2023-02-11T21:54:02.945Z,17.27
2023-02-11T21:56:35.685Z,17.00
2023-02-11T21:59:05.415Z,16.05
2023-02-11T22:01:39.513Z,14.57
2023-02-11T22:04:08.407Z,15.45
2023-02-11T22:06:36.870Z,15.93
2023-02-11T22:09:08.806Z,17.10
2023-02-11T22:11:38.140Z,19.00
2023-02-11T22:14:08.082Z,15.88
2023-02-11T22:16:38.415Z,17.63
2023-02-11T22:19:07.596Z,15.65
2023-02-11T22:21:36.324Z,15.98
2023-02-11T22:24:05.882Z,17.55
2023-02-11T22:26:34.680Z,16.70
2023-02-11T22:29:03.264Z,16.35
2023-02-11T22:31:34.922Z,18.48
2023-02-11T22:34:06.160Z,20.42
2023-02-11T22:36:37.285Z,17.75
2023-02-11T22:39:08.766Z,15.88
2023-02-11T22:41:38.392Z,17.77
2023-02-11T22:44:06.891Z,15.73
2023-02-11T22:46:36.537Z,17.30
2023-02-11T22:49:07.218Z,16.48
2023-02-11T22:51:36.252Z,19.83
2023-02-11T22:54:07.311Z,19.55
2023-02-11T22:56:36.734Z,16.75
2023-02-11T22:59:07.882Z,17.23
2023-02-11T23:01:36.862Z,18.55
2023-02-11T23:04:09.530Z,17.13
2023-02-11T23:06:38.211Z,15.35
2023-02-11T23:09:08.231Z,17.60
2023-02-11T23:11:37.225Z,17.55
2023-02-11T23:14:05.870Z,14.85
2023-02-11T23:16:35.875Z,21.05
2023-02-11T23:19:08.575Z,16.13
2023-02-11T23:21:40.300Z,16.38
2023-02-11T23:24:14.270Z,16.23
2023-02-11T23:26:44.847Z,13.70
2023-02-11T23:29:13.993Z,14.30
2023-02-11T23:31:46.083Z,16.10
2023-02-11T23:34:20.424Z,15.57
2023-02-11T23:36:48.832Z,16.88
2023-02-11T23:39:17.979Z,17.33
2023-02-11T23:41:47.848Z,14.40
2023-02-11T23:44:16.422Z,19.75
2023-02-11T23:46:44.905Z,15.73
2023-02-11T23:49:15.620Z,17.85
2023-02-11T23:51:45.504Z,15.98
2023-02-11T23:54:15.930Z,15.45
2023-02-11T23:56:44.588Z,21.98
2023-02-11T23:59:13.197Z,19.25
